Terminal Aerodrome Forecast
Issued by NWS

Home | Current Version | Previous Version | Text Only | Print | Product List | Glossary On
Versions: 1 2 3 4 5 6 7 8 9 10 11 12 13 14 15 16 17 18 19 20 21 22 23 24 25 26 27 28
000
FTUS41 KBUF 170215 AAA
TAFJHW
TAF AMD
KJHW 170215Z 1702/1724 VRB03KT P6SM SKC
     FM170600 10004KT 4SM BR SCT250
     FM170800 13004KT 1SM BR BKN004
     FM171200 15006KT P6SM BKN080
     FM171700 17008KT P6SM VCSH OVC040
     FM172000 16006KT 6SM -SHRA VCTS OVC040CB
      AMD LTD TO CLD VIS AND WIND=

USA.gov is the U.S. government's official web portal to all federal, state and local government web resources and services.